Westview, KY (40178)

4:07 AM CDT on July 25, 2016 (GMT -0500)
Eveleigh Road | | Change Station

Elev 670 ft 37.58 °N, 86.34 °W | Updated 4 seconds ago

Clear
Clear
75.9 °F
Feels Like 75 °F
N
0.0
Wind Variable Wind from SW
Gusts 0.0 mph

Today
High -- | Low -- °F
--% Chance of Precip.
Yesterday
High -- | Low -- °F
Precip. -- in
Pressure 29.99 in
Visibility 10.0 miles
Clouds Clear
Heat Index 75 °F
Dew Point 76 °F
Humidity 99%
Rainfall 0.00 in
Snow Depth Not available.
5:44 AM 7:59 PM
Waning Gibbous, 68% visible
METAR KFTK 250858Z AUTO 15002KT 10SM CLR 24/23 A3000 RMK AO2 SLP153 60000 T02370232 58001
Pressure 29.99 in
Visibility 10.0 miles
Clouds Clear
Heat Index 75 °F
Dew Point 76 °F
Humidity 99%
Rainfall 0.00 in
Snow Depth Not available.
5:44 AM 7:59 PM
Waning Gibbous, 68% visible
METAR KFTK 250858Z AUTO 15002KT 10SM CLR 24/23 A3000 RMK AO2 SLP153 60000 T02370232 58001

10-Day Weather Forecast

Almanac

Astronomy

Jul. 25, 2016 Rise Set
Actual Time
Civil Twilight
Nautical Twilight
Astronomical Twilight
Moon
Length of Visible Light
Length of Day
Tomorrow will be .
, % of the Moon is Illuminated

Today's Extremes

State Highs State Lows

Community

WunderPhotos

Upload Photos

1,927,274 photos uploaded!

WunderBlog® & News

Nearby

Air Quality

  Air Quality AQ Index Pollutant
Not available.

Snow Depth

Station Depth Elevation

Earthquake Activity

City Distance Mag. Time & Date
Minimum magnitude displayed is 2.5.

Coastal Water Temperatures

Place Temperature

Stations

Nearby Weather Stations

Station Location Temp. Windchill Dew Point Humidity Wind Precip. Elev Updated Type
                   

Watches & Warnings

There are currently no watches in effect.